createdAt,value
2023-02-03T00:55:25.433Z,500.00
2023-02-03T00:56:26.391Z,500.00
2023-02-03T00:57:26.389Z,500.00
2023-02-03T00:58:26.374Z,500.00
2023-02-03T00:59:26.368Z,500.00
2023-02-03T01:00:26.746Z,500.00
2023-02-03T01:01:26.460Z,434.00
2023-02-03T01:02:26.385Z,400.00
2023-02-03T01:03:26.330Z,400.00
2023-02-03T01:04:26.321Z,400.00
2023-02-03T01:05:26.317Z,400.00
2023-02-03T01:06:26.324Z,407.00
2023-02-03T01:07:26.292Z,430.00
2023-02-03T01:08:26.293Z,457.00
2023-02-03T01:09:26.291Z,487.00
2023-02-03T01:10:26.598Z,503.00
2023-02-03T01:11:26.285Z,497.00
2023-02-03T01:12:26.250Z,500.00
2023-02-03T01:13:26.244Z,501.00
2023-02-03T01:14:26.232Z,500.00
2023-02-03T01:15:26.222Z,500.00
2023-02-03T01:16:28.584Z,500.00
2023-02-03T01:17:26.211Z,503.00
2023-02-03T01:18:26.217Z,501.00
2023-02-03T01:19:26.188Z,500.00
2023-02-03T01:20:26.540Z,504.00
2023-02-03T01:21:26.202Z,500.00
2023-02-03T01:22:26.159Z,500.00
2023-02-03T01:23:26.164Z,504.00
2023-02-03T01:24:26.147Z,504.00
2023-02-03T01:25:26.136Z,500.00
2023-02-03T01:26:26.125Z,500.00
2023-02-03T01:27:26.139Z,500.00
2023-02-03T01:28:26.116Z,505.00
2023-02-03T01:29:26.100Z,502.00
2023-02-03T01:30:26.473Z,503.00
2023-02-03T01:31:26.399Z,506.00
2023-02-03T01:32:26.067Z,505.00
2023-02-03T01:33:26.065Z,502.00
2023-02-03T01:34:26.064Z,507.00
2023-02-03T01:35:26.047Z,501.00
2023-02-03T01:36:26.044Z,508.00
2023-02-03T01:37:26.030Z,505.00
2023-02-03T01:38:26.020Z,509.00
2023-02-03T01:39:26.015Z,503.00
2023-02-03T01:40:26.444Z,505.00
2023-02-03T01:41:25.995Z,500.00
2023-02-03T01:42:25.988Z,505.00
2023-02-03T01:43:25.993Z,503.00
2023-02-03T01:44:25.966Z,508.00
2023-02-03T01:45:25.958Z,503.00
2023-02-03T01:46:26.049Z,510.00
2023-02-03T01:47:25.941Z,505.00
2023-02-03T01:48:25.948Z,509.00
2023-02-03T01:49:25.924Z,505.00
2023-02-03T01:50:26.308Z,504.00
2023-02-03T01:51:25.896Z,505.00
2023-02-03T01:52:25.892Z,504.00
2023-02-03T01:53:25.881Z,505.00
2023-02-03T01:54:25.875Z,504.00
2023-02-03T01:55:25.863Z,507.00
2023-02-03T01:56:25.860Z,504.00
2023-02-03T01:57:25.854Z,505.00
2023-02-03T01:58:25.847Z,503.00
2023-02-03T01:59:25.852Z,510.00
2023-02-03T02:00:26.199Z,502.00
2023-02-03T02:01:25.879Z,502.00
2023-02-03T02:02:25.844Z,500.00
2023-02-03T02:03:26.011Z,504.00
2023-02-03T02:04:25.784Z,504.00
2023-02-03T02:05:25.776Z,507.00
2023-02-03T02:06:25.768Z,506.00
2023-02-03T02:07:25.766Z,500.00
2023-02-03T02:08:25.758Z,502.00
2023-02-03T02:09:25.740Z,507.00
2023-02-03T02:10:26.207Z,507.00
2023-02-03T02:11:25.725Z,509.00
2023-02-03T02:12:25.722Z,505.00
2023-02-03T02:13:25.706Z,506.00
2023-02-03T02:14:25.694Z,500.00
2023-02-03T02:15:25.717Z,506.00
2023-02-03T02:16:25.672Z,506.00
2023-02-03T02:17:25.671Z,500.00
2023-02-03T02:18:25.668Z,510.00
2023-02-03T02:19:25.647Z,510.00
2023-02-03T02:20:25.935Z,511.00
2023-02-03T02:21:25.626Z,507.00
2023-02-03T02:22:25.623Z,509.00
2023-02-03T02:23:25.618Z,503.00
2023-02-03T02:24:25.607Z,510.00
2023-02-03T02:25:25.591Z,511.00
2023-02-03T02:26:25.589Z,507.00
2023-02-03T02:27:25.582Z,504.00
2023-02-03T02:28:25.568Z,504.00
2023-02-03T02:29:25.577Z,509.00
2023-02-03T02:30:25.840Z,509.00
2023-02-03T02:31:25.689Z,507.00
2023-02-03T02:32:25.536Z,504.00
2023-02-03T02:33:25.523Z,506.00
2023-02-03T02:34:25.524Z,505.00
2023-02-03T02:35:25.516Z,506.00
2023-02-03T02:36:25.499Z,506.00
2023-02-03T02:37:25.488Z,508.00
2023-02-03T02:38:25.477Z,503.00
2023-02-03T02:39:25.489Z,503.00
2023-02-03T02:40:25.826Z,505.00
2023-02-03T02:41:25.453Z,502.00
2023-02-03T02:42:25.446Z,506.00
2023-02-03T02:43:25.436Z,502.00
2023-02-03T02:44:25.437Z,505.00
2023-02-03T02:45:25.425Z,500.00
2023-02-03T02:46:25.473Z,506.00
2023-02-03T02:47:25.421Z,504.00
2023-02-03T02:48:25.392Z,509.00
2023-02-03T02:49:25.383Z,509.00
2023-02-03T02:50:25.793Z,506.00
2023-02-03T02:51:25.371Z,509.00
2023-02-03T02:52:25.363Z,504.00
2023-02-03T02:53:25.339Z,505.00
2023-02-03T02:54:25.344Z,502.00
2023-02-03T02:55:25.330Z,510.00
2023-02-03T02:56:25.340Z,509.00
2023-02-03T02:57:25.305Z,506.00
2023-02-03T02:58:25.304Z,512.00
2023-02-03T02:59:25.306Z,508.00
2023-02-03T03:00:25.668Z,500.00
2023-02-03T03:01:25.304Z,505.00
2023-02-03T03:02:25.271Z,508.00
2023-02-03T03:03:25.295Z,506.00
2023-02-03T03:04:25.326Z,508.00
2023-02-03T03:05:25.235Z,504.00
2023-02-03T03:06:25.280Z,510.00
2023-02-03T03:07:25.226Z,508.00
2023-02-03T03:08:25.213Z,511.00
2023-02-03T03:09:25.205Z,510.00
2023-02-03T03:10:25.607Z,514.00
2023-02-03T03:11:25.189Z,508.00
2023-02-03T03:12:25.183Z,507.00
2023-02-03T03:13:25.173Z,511.00
2023-02-03T03:14:25.157Z,508.00
2023-02-03T03:15:25.153Z,509.00
2023-02-03T03:16:25.246Z,504.00
2023-02-03T03:17:25.133Z,510.00
2023-02-03T03:18:25.122Z,506.00
2023-02-03T03:19:25.146Z,506.00
2023-02-03T03:20:25.429Z,507.00
2023-02-03T03:21:25.101Z,508.00
2023-02-03T03:22:25.084Z,511.00
2023-02-03T03:23:25.072Z,505.00
2023-02-03T03:24:25.073Z,509.00
2023-02-03T03:25:25.056Z,510.00
2023-02-03T03:26:25.049Z,506.00
2023-02-03T03:27:25.042Z,506.00
2023-02-03T03:28:25.032Z,507.00
2023-02-03T03:29:25.027Z,506.00
2023-02-03T03:30:25.381Z,503.00
2023-02-03T03:31:25.096Z,511.00
2023-02-03T03:32:25.003Z,508.00
2023-02-03T03:33:24.991Z,503.00
2023-02-03T03:34:24.981Z,506.00
2023-02-03T03:35:25.008Z,507.00
2023-02-03T03:36:24.964Z,509.00
2023-02-03T03:37:24.952Z,513.00
2023-02-03T03:38:24.939Z,511.00
2023-02-03T03:39:24.932Z,504.00
2023-02-03T03:40:25.309Z,505.00
2023-02-03T03:41:24.916Z,505.00
2023-02-03T03:42:24.909Z,510.00
2023-02-03T03:43:24.903Z,506.00
2023-02-03T03:44:24.889Z,502.00
2023-02-03T03:45:24.890Z,509.00
2023-02-03T03:46:24.955Z,507.00
2023-02-03T03:47:24.869Z,507.00
2023-02-03T03:48:24.857Z,506.00
2023-02-03T03:49:24.845Z,505.00
2023-02-03T03:50:24.969Z,506.00
2023-02-03T03:51:24.863Z,510.00
2023-02-03T03:52:24.814Z,509.00
2023-02-03T03:53:24.809Z,506.00
2023-02-03T03:54:24.807Z,505.00
2023-02-03T03:55:24.792Z,504.00
2023-02-03T03:56:24.781Z,507.00
2023-02-03T03:57:24.790Z,509.00
2023-02-03T03:58:24.769Z,508.00
2023-02-03T03:59:24.752Z,502.00
2023-02-03T04:00:25.095Z,502.00
2023-02-03T04:01:24.891Z,503.00
2023-02-03T04:02:24.770Z,509.00
2023-02-03T04:03:24.801Z,506.00
2023-02-03T04:04:24.708Z,508.00
2023-02-03T04:05:24.721Z,504.00
2023-02-03T04:06:24.697Z,506.00
2023-02-03T04:07:24.709Z,506.00
2023-02-03T04:08:24.687Z,506.00
2023-02-03T04:09:24.664Z,509.00
2023-02-03T04:10:24.829Z,507.00
2023-02-03T04:11:24.652Z,504.00
2023-02-03T04:12:24.643Z,506.00
2023-02-03T04:13:24.643Z,508.00
2023-02-03T04:14:24.628Z,504.00
2023-02-03T04:15:24.612Z,504.00
2023-02-03T04:16:24.648Z,505.00
2023-02-03T04:17:24.594Z,504.00
2023-02-03T04:18:24.593Z,504.00
2023-02-03T04:19:24.588Z,506.00
2023-02-03T04:20:24.796Z,506.00
2023-02-03T04:21:24.555Z,509.00
2023-02-03T04:22:24.547Z,507.00
2023-02-03T04:23:24.570Z,501.00
2023-02-03T04:24:24.533Z,507.00
2023-02-03T04:25:24.548Z,503.00
2023-02-03T04:26:24.513Z,510.00
2023-02-03T04:27:24.518Z,510.00
2023-02-03T04:28:24.493Z,511.00
2023-02-03T04:29:24.494Z,506.00
2023-02-03T04:30:24.478Z,506.00
2023-02-03T04:31:24.595Z,504.00
2023-02-03T04:32:24.463Z,503.00
2023-02-03T04:33:24.451Z,507.00
2023-02-03T04:34:24.444Z,501.00
2023-02-03T04:35:24.440Z,505.00
2023-02-03T04:36:24.424Z,513.00
2023-02-03T04:37:24.415Z,504.00
2023-02-03T04:38:24.407Z,505.00
2023-02-03T04:39:24.425Z,507.00
2023-02-03T04:40:24.406Z,504.00
2023-02-03T04:41:24.425Z,504.00
2023-02-03T04:42:24.374Z,507.00
2023-02-03T04:43:24.360Z,511.00
2023-02-03T04:44:24.347Z,506.00
2023-02-03T04:45:24.396Z,507.00
2023-02-03T04:46:24.340Z,503.00
2023-02-03T04:47:24.331Z,507.00
2023-02-03T04:48:24.317Z,506.00
2023-02-03T04:49:24.313Z,508.00
2023-02-03T04:50:24.427Z,508.00
2023-02-03T04:51:24.291Z,508.00
2023-02-03T04:52:24.290Z,508.00
2023-02-03T04:53:24.286Z,508.00
2023-02-03T04:54:24.290Z,507.00
2023-02-03T04:55:24.285Z,505.00
2023-02-03T04:56:24.259Z,506.00
2023-02-03T04:57:24.242Z,507.00
2023-02-03T04:58:24.227Z,500.00
2023-02-03T04:59:24.221Z,505.00
2023-02-03T05:00:24.227Z,509.00
2023-02-03T05:01:24.276Z,504.00
2023-02-03T05:02:24.191Z,504.00
2023-02-03T05:03:26.310Z,511.00
2023-02-03T05:04:24.175Z,511.00
2023-02-03T05:05:24.165Z,511.00
2023-02-03T05:06:24.164Z,510.00
2023-02-03T05:07:24.146Z,506.00
2023-02-03T05:08:24.140Z,515.00
2023-02-03T05:09:24.133Z,510.00
2023-02-03T05:10:24.298Z,506.00
2023-02-03T05:11:24.152Z,507.00
2023-02-03T05:12:24.111Z,505.00
2023-02-03T05:13:24.095Z,509.00
2023-02-03T05:14:24.086Z,505.00
2023-02-03T05:15:24.074Z,502.00
2023-02-03T05:16:24.130Z,509.00
2023-02-03T05:17:24.057Z,506.00
2023-02-03T05:18:24.052Z,513.00
2023-02-03T05:19:24.052Z,509.00
2023-02-03T05:20:24.037Z,510.00
2023-02-03T05:21:24.024Z,511.00
2023-02-03T05:22:24.013Z,507.00
2023-02-03T05:23:24.016Z,506.00
2023-02-03T05:24:23.999Z,510.00
2023-02-03T05:25:23.991Z,510.00
2023-02-03T05:26:23.979Z,508.00
2023-02-03T05:27:24.000Z,510.00
2023-02-03T05:28:23.959Z,505.00
2023-02-03T05:29:23.959Z,507.00
2023-02-03T05:30:23.952Z,507.00
2023-02-03T05:31:24.123Z,505.00
2023-02-03T05:32:23.931Z,512.00
2023-02-03T05:33:23.915Z,502.00
2023-02-03T05:34:23.902Z,505.00
2023-02-03T05:35:23.896Z,505.00
2023-02-03T05:36:23.901Z,510.00
2023-02-03T05:37:23.879Z,503.00
2023-02-03T05:38:23.875Z,505.00
2023-02-03T05:39:23.860Z,503.00
2023-02-03T05:40:23.850Z,504.00
2023-02-03T05:41:23.850Z,503.00
2023-02-03T05:42:23.845Z,504.00
2023-02-03T05:43:23.850Z,508.00
2023-02-03T05:44:23.819Z,505.00
2023-02-03T05:45:23.811Z,500.00
2023-02-03T05:46:23.803Z,505.00
2023-02-03T05:47:23.799Z,505.00
2023-02-03T05:48:23.779Z,511.00
2023-02-03T05:49:23.770Z,504.00
2023-02-03T05:50:23.779Z,511.00
2023-02-03T05:51:23.795Z,508.00
2023-02-03T05:52:23.750Z,505.00
2023-02-03T05:53:23.739Z,506.00
2023-02-03T05:54:23.743Z,507.00
2023-02-03T05:55:23.725Z,506.00
2023-02-03T05:56:23.718Z,510.00
2023-02-03T05:57:23.703Z,504.00
2023-02-03T05:58:23.704Z,507.00
2023-02-03T05:59:23.704Z,503.00
2023-02-03T06:00:23.676Z,503.00
2023-02-03T06:01:23.675Z,507.00
2023-02-03T06:02:23.661Z,509.00
2023-02-03T06:03:23.765Z,505.00
2023-02-03T06:04:23.686Z,507.00
2023-02-03T06:05:23.801Z,504.00
2023-02-03T06:06:23.627Z,505.00
2023-02-03T06:07:23.612Z,504.00
2023-02-03T06:08:23.601Z,506.00
2023-02-03T06:09:23.605Z,510.00
2023-02-03T06:10:23.606Z,506.00
2023-02-03T06:11:23.581Z,508.00
2023-02-03T06:12:23.567Z,504.00
2023-02-03T06:13:23.556Z,506.00
2023-02-03T06:14:23.554Z,506.00
2023-02-03T06:15:23.561Z,507.00
2023-02-03T06:16:23.602Z,505.00
2023-02-03T06:17:23.613Z,508.00
2023-02-03T06:18:23.509Z,508.00
2023-02-03T06:19:23.504Z,504.00
2023-02-03T06:20:23.496Z,505.00
2023-02-03T06:21:23.481Z,507.00
2023-02-03T06:22:23.611Z,510.00
2023-02-03T06:23:23.469Z,504.00
2023-02-03T06:24:23.463Z,505.00
2023-02-03T06:25:23.456Z,509.00
2023-02-03T06:26:23.452Z,507.00
2023-02-03T06:27:23.428Z,509.00
2023-02-03T06:28:23.427Z,508.00
2023-02-03T06:29:23.411Z,507.00
2023-02-03T06:30:23.409Z,505.00
2023-02-03T06:31:23.544Z,509.00
2023-02-03T06:33:23.374Z,508.00
2023-02-03T06:34:23.365Z,507.00
2023-02-03T06:35:23.376Z,509.00
2023-02-03T06:36:23.355Z,508.00
2023-02-03T06:37:24.811Z,509.00
2023-02-03T06:38:23.412Z,511.00
2023-02-03T06:39:23.412Z,510.00
2023-02-03T06:40:23.364Z,508.00
2023-02-03T06:41:23.357Z,513.00
2023-02-03T06:42:23.352Z,508.00
2023-02-03T06:43:23.621Z,509.00
2023-02-03T06:44:23.355Z,509.00
2023-02-03T06:45:23.328Z,506.00
2023-02-03T06:46:23.386Z,524.00
2023-02-03T06:47:23.363Z,519.00
2023-02-03T06:49:23.312Z,513.00
2023-02-03T06:50:23.282Z,512.00
2023-02-03T06:51:23.293Z,509.00
2023-02-03T06:52:23.364Z,510.00
2023-02-03T06:54:23.274Z,520.00
2023-02-03T06:55:23.238Z,536.00
2023-02-03T06:56:23.245Z,554.00
2023-02-03T06:58:23.217Z,560.00
2023-02-03T07:00:31.013Z,561.00
2023-02-03T07:01:23.195Z,562.00
2023-02-03T07:03:23.210Z,580.00
2023-02-03T07:04:26.375Z,602.00
2023-02-03T07:05:23.185Z,562.00
2023-02-03T07:06:54.985Z,571.00
2023-02-03T07:07:23.178Z,562.00
2023-02-03T07:08:23.125Z,574.00
2023-02-03T07:10:23.131Z,563.00
2023-02-03T07:11:23.124Z,576.00
2023-02-03T07:12:23.167Z,597.00
2023-02-03T07:13:23.113Z,626.00
2023-02-03T07:14:23.111Z,678.00
2023-02-03T07:15:23.110Z,709.00
2023-02-03T07:16:23.141Z,710.00
2023-02-03T07:17:23.220Z,727.00
2023-02-03T07:18:45.462Z,743.00
2023-02-03T07:19:23.075Z,745.00
2023-02-03T07:20:23.052Z,752.00
2023-02-03T07:21:23.045Z,752.00
2023-02-03T07:24:23.009Z,801.00
2023-02-03T07:25:23.000Z,829.00
2023-02-03T07:26:23.156Z,830.00
2023-02-03T07:27:22.955Z,822.00
2023-02-03T07:28:23.122Z,837.00
2023-02-03T07:29:23.134Z,836.00
2023-02-03T07:30:22.935Z,848.00
2023-02-03T07:31:23.055Z,862.00
2023-02-03T07:32:22.911Z,894.00
2023-02-03T07:33:22.898Z,886.00
2023-02-03T07:34:22.893Z,898.00
2023-02-03T07:35:22.904Z,887.00
2023-02-03T07:36:22.872Z,905.00
2023-02-03T07:37:22.868Z,913.00
2023-02-03T07:38:22.868Z,909.00
2023-02-03T07:39:22.855Z,914.00
2023-02-03T07:41:22.837Z,936.00
2023-02-03T07:42:22.912Z,928.00
2023-02-03T07:43:22.811Z,950.00
2023-02-03T07:45:22.792Z,960.00
2023-02-03T07:47:22.774Z,978.00
2023-02-03T07:48:22.767Z,1010.00
2023-02-03T07:49:22.762Z,1013.00
2023-02-03T07:52:22.735Z,1032.00
2023-02-03T07:53:22.721Z,1037.00
2023-02-03T07:55:22.714Z,1048.00
2023-02-03T07:56:22.696Z,1032.00
2023-02-03T07:57:22.688Z,1019.00
2023-02-03T07:58:22.684Z,1005.00
2023-02-03T08:00:22.665Z,945.00
2023-02-03T08:01:22.676Z,923.00
2023-02-03T08:02:22.774Z,917.00
2023-02-03T08:03:23.665Z,934.00
2023-02-03T08:04:22.629Z,939.00
2023-02-03T08:05:22.613Z,925.00
2023-02-03T08:06:22.637Z,904.00
2023-02-03T08:07:22.597Z,905.00
2023-02-03T08:08:22.613Z,915.00
2023-02-03T08:09:22.659Z,917.00
2023-02-03T08:10:22.577Z,926.00
2023-02-03T08:11:22.567Z,909.00
2023-02-03T08:12:22.553Z,915.00
2023-02-03T08:13:22.547Z,918.00
2023-02-03T08:14:22.648Z,922.00
2023-02-03T08:15:22.672Z,907.00
2023-02-03T08:16:22.702Z,914.00
2023-02-03T08:17:22.538Z,916.00
2023-02-03T08:18:22.534Z,907.00
2023-02-03T08:19:22.689Z,923.00
2023-02-03T08:20:22.504Z,919.00
2023-02-03T08:21:22.671Z,899.00
2023-02-03T08:22:22.562Z,905.00
2023-02-03T08:23:22.481Z,908.00
2023-02-03T08:24:22.469Z,919.00
2023-02-03T08:25:22.889Z,922.00
2023-02-03T08:26:22.684Z,911.00
2023-02-03T08:27:22.455Z,922.00
2023-02-03T08:28:22.447Z,912.00
2023-02-03T08:29:22.680Z,908.00
2023-02-03T08:30:22.428Z,899.00
2023-02-03T08:31:22.449Z,873.00
2023-02-03T08:32:22.506Z,869.00
2023-02-03T08:33:22.371Z,849.00
2023-02-03T08:35:22.360Z,740.00
2023-02-03T08:36:22.354Z,660.00
2023-02-03T08:37:22.332Z,656.00
2023-02-03T08:38:22.352Z,656.00
2023-02-03T08:41:22.303Z,677.00
2023-02-03T08:43:22.281Z,685.00
2023-02-03T08:44:22.268Z,661.00
2023-02-03T08:45:22.424Z,665.00
2023-02-03T08:46:22.277Z,665.00
2023-02-03T08:48:22.238Z,667.00
2023-02-03T08:49:22.225Z,679.00
2023-02-03T08:50:22.220Z,683.00
2023-02-03T08:52:22.211Z,682.00
2023-02-03T08:53:22.907Z,700.00
2023-02-03T08:54:22.206Z,697.00
2023-02-03T08:55:22.188Z,699.00
2023-02-03T08:58:22.207Z,716.00
2023-02-03T08:59:22.673Z,715.00
2023-02-03T09:02:22.510Z,735.00
2023-02-03T09:05:22.204Z,739.00
2023-02-03T09:07:22.219Z,745.00
2023-02-03T09:09:22.204Z,792.00
2023-02-03T09:14:22.209Z,810.00
2023-02-03T09:19:22.206Z,844.00
2023-02-03T09:21:33.290Z,856.00
2023-02-03T09:26:22.272Z,878.00
2023-02-03T09:31:22.227Z,905.00
2023-02-03T09:36:22.218Z,943.00
2023-02-03T09:39:22.185Z,960.00
2023-02-03T09:42:22.216Z,963.00
2023-02-03T09:44:22.216Z,977.00
2023-02-03T09:46:22.265Z,981.00
2023-02-03T09:51:22.199Z,1030.00
2023-02-03T10:09:37.144Z,1087.00
2023-02-03T10:23:21.426Z,1192.00
2023-02-03T10:24:21.407Z,1197.00
2023-02-03T10:27:21.383Z,1191.00
2023-02-03T10:29:21.389Z,1233.00
2023-02-03T10:38:21.289Z,1287.00
2023-02-03T10:39:21.286Z,1298.00
2023-02-03T10:46:22.417Z,1330.00
2023-02-03T10:50:36.859Z,1343.00
2023-02-03T10:52:21.223Z,1347.00
2023-02-03T10:57:21.244Z,1366.00
2023-02-03T11:01:21.129Z,1363.00
2023-02-03T11:02:21.316Z,1376.00
2023-02-03T11:03:21.092Z,1355.00
2023-02-03T11:04:21.085Z,1365.00
2023-02-03T11:05:21.490Z,1382.00
2023-02-03T11:07:21.221Z,1387.00
2023-02-03T11:08:21.265Z,1407.00
2023-02-03T11:09:21.032Z,1398.00
2023-02-03T11:10:21.055Z,1402.00
2023-02-03T11:11:21.953Z,1415.00
2023-02-03T11:12:21.223Z,1417.00
2023-02-03T11:14:20.989Z,1431.00
2023-02-03T11:15:20.985Z,1437.00
2023-02-03T11:16:21.162Z,1453.00
2023-02-03T11:18:20.989Z,1464.00
2023-02-03T11:19:20.969Z,1465.00
2023-02-03T11:21:20.940Z,1476.00
2023-02-03T11:22:20.938Z,1480.00
2023-02-03T11:24:20.902Z,1483.00
2023-02-03T11:26:20.891Z,1487.00
2023-02-03T11:27:20.907Z,1506.00
2023-02-03T11:29:23.646Z,1494.00
2023-02-03T11:30:20.851Z,1495.00
2023-02-03T11:32:20.847Z,1496.00
2023-02-03T11:34:20.848Z,1472.00
2023-02-03T11:35:23.534Z,1148.00
2023-02-03T11:37:20.823Z,819.00
2023-02-03T11:39:20.805Z,781.00
2023-02-03T11:40:20.779Z,782.00
2023-02-03T11:41:22.468Z,741.00
2023-02-03T11:42:20.758Z,741.00
2023-02-03T11:44:20.737Z,679.00
2023-02-03T11:45:20.728Z,668.00
2023-02-03T11:46:20.777Z,662.00
2023-02-03T11:47:23.467Z,660.00
2023-02-03T11:48:20.740Z,660.00
2023-02-03T11:49:20.703Z,662.00
2023-02-03T11:50:20.723Z,665.00
2023-02-03T11:52:20.666Z,752.00
2023-02-03T11:53:23.013Z,768.00
2023-02-03T11:54:20.660Z,769.00
2023-02-03T11:55:20.637Z,770.00
2023-02-03T11:57:20.618Z,787.00
2023-02-03T11:58:20.761Z,791.00
2023-02-03T11:59:21.210Z,778.00
2023-02-03T12:00:20.591Z,776.00
2023-02-03T12:02:53.384Z,500.00
2023-02-03T12:03:54.552Z,500.00
2023-02-03T12:04:54.384Z,500.00
2023-02-03T12:05:54.335Z,500.00
2023-02-03T12:06:54.302Z,500.00
2023-02-03T12:07:54.537Z,505.00
2023-02-03T12:08:54.326Z,500.00
2023-02-03T12:09:54.296Z,500.00
2023-02-03T12:10:54.284Z,505.00
2023-02-03T12:11:54.276Z,504.00
2023-02-03T12:12:54.265Z,502.00
2023-02-03T12:13:54.621Z,503.00
2023-02-03T12:14:54.249Z,506.00
2023-02-03T12:15:54.347Z,508.00
2023-02-03T12:16:54.272Z,500.00
2023-02-03T12:17:54.305Z,503.00
2023-02-03T12:18:54.618Z,511.00
2023-02-03T12:19:54.219Z,503.00
2023-02-03T12:20:54.196Z,503.00
2023-02-03T12:21:54.203Z,509.00
2023-02-03T12:22:54.176Z,504.00
2023-02-03T12:23:54.575Z,505.00
2023-02-03T12:24:54.167Z,502.00
2023-02-03T12:25:54.589Z,504.00
2023-02-03T12:26:54.155Z,504.00
2023-02-03T12:27:54.269Z,511.00
2023-02-03T12:28:54.153Z,505.00
2023-02-03T12:29:54.544Z,503.00
2023-02-03T12:30:54.181Z,504.00
2023-02-03T12:31:54.142Z,502.00
2023-02-03T12:32:54.125Z,503.00
2023-02-03T12:33:54.100Z,504.00
2023-02-03T12:34:54.114Z,499.00
2023-02-03T12:35:54.081Z,506.00
2023-02-03T12:36:54.064Z,500.00
2023-02-03T12:37:54.077Z,501.00
2023-02-03T12:38:54.046Z,503.00
2023-02-03T12:39:54.056Z,500.00
2023-02-03T12:40:54.027Z,500.00
2023-02-03T12:41:54.023Z,504.00
2023-02-03T12:42:54.010Z,502.00
2023-02-03T12:43:54.007Z,504.00
2023-02-03T12:44:53.996Z,502.00
2023-02-03T12:45:54.119Z,506.00
2023-02-03T12:46:53.979Z,503.00
2023-02-03T12:47:53.979Z,503.00
2023-02-03T12:48:53.963Z,505.00
2023-02-03T12:49:53.966Z,507.00
2023-02-03T12:50:54.059Z,506.00
2023-02-03T12:51:53.940Z,503.00
2023-02-03T12:52:54.068Z,502.00
2023-02-03T12:53:54.784Z,504.00
2023-02-03T12:54:53.917Z,512.00
2023-02-03T12:55:53.896Z,502.00
2023-02-03T12:56:53.884Z,502.00
2023-02-03T12:57:53.893Z,501.00
2023-02-03T12:58:53.882Z,508.00
2023-02-03T12:59:54.093Z,504.00
2023-02-03T13:00:53.933Z,506.00
2023-02-03T13:01:53.922Z,510.00
2023-02-03T13:02:53.834Z,503.00
2023-02-03T13:03:53.834Z,505.00
2023-02-03T13:04:56.649Z,508.00
2023-02-03T13:05:54.058Z,509.00
2023-02-03T13:06:53.806Z,508.00
2023-02-03T13:07:53.811Z,509.00
2023-02-03T13:08:53.797Z,502.00
2023-02-03T13:09:54.105Z,502.00
2023-02-03T13:10:53.783Z,505.00
2023-02-03T13:11:53.763Z,501.00
2023-02-03T13:12:53.763Z,504.00
2023-02-03T13:13:53.753Z,501.00
2023-02-03T13:14:54.087Z,502.00
2023-02-03T13:15:53.733Z,501.00
2023-02-03T13:16:53.854Z,504.00
2023-02-03T13:17:53.708Z,503.00
2023-02-03T13:18:53.714Z,502.00
2023-02-03T13:19:53.697Z,502.00
2023-02-03T13:20:54.073Z,501.00
2023-02-03T13:21:53.694Z,502.00
2023-02-03T13:22:53.672Z,506.00
2023-02-03T13:23:53.668Z,503.00
2023-02-03T13:24:53.653Z,504.00
2023-02-03T13:25:54.100Z,500.00
2023-02-03T13:26:53.649Z,501.00
2023-02-03T13:27:53.661Z,505.00
2023-02-03T13:28:53.617Z,512.00
2023-02-03T13:29:53.616Z,504.00
2023-02-03T13:30:54.120Z,507.00
2023-02-03T13:31:53.659Z,508.00
2023-02-03T13:32:53.600Z,503.00
2023-02-03T13:33:53.594Z,508.00
2023-02-03T13:34:53.573Z,501.00
2023-02-03T13:35:53.570Z,503.00
2023-02-03T13:36:53.600Z,502.00
2023-02-03T13:37:53.555Z,506.00
2023-02-03T13:38:53.534Z,502.00
2023-02-03T13:39:53.540Z,509.00
2023-02-03T13:40:53.520Z,506.00
2023-02-03T13:41:53.543Z,505.00
2023-02-03T13:42:53.572Z,501.00
2023-02-03T13:43:53.499Z,504.00
2023-02-03T13:44:53.525Z,507.00
2023-02-03T13:45:53.633Z,508.00
2023-02-03T13:46:53.482Z,501.00
2023-02-03T13:47:53.619Z,505.00
2023-02-03T13:48:53.458Z,504.00
2023-02-03T13:49:53.455Z,502.00
2023-02-03T13:50:53.440Z,506.00
2023-02-03T13:51:53.434Z,503.00
2023-02-03T13:52:54.760Z,504.00
2023-02-03T13:53:53.414Z,504.00
2023-02-03T13:54:53.403Z,505.00
2023-02-03T13:55:53.586Z,506.00
2023-02-03T13:56:53.403Z,505.00
2023-02-03T13:57:53.422Z,505.00
2023-02-03T13:58:53.374Z,503.00
2023-02-03T13:59:53.369Z,504.00
2023-02-03T14:00:53.610Z,506.00
2023-02-03T14:01:53.346Z,502.00
2023-02-03T14:02:53.357Z,511.00
2023-02-03T14:03:53.541Z,511.00
2023-02-03T14:04:54.437Z,507.00
2023-02-03T14:05:53.608Z,514.00
2023-02-03T14:06:53.316Z,508.00
2023-02-03T14:07:53.303Z,509.00
2023-02-03T14:08:53.295Z,507.00
2023-02-03T14:09:53.294Z,509.00
2023-02-03T14:10:53.636Z,502.00
2023-02-03T14:11:53.279Z,502.00
2023-02-03T14:12:53.263Z,506.00
2023-02-03T14:13:53.290Z,510.00
2023-02-03T14:14:53.264Z,504.00
2023-02-03T14:15:53.233Z,511.00
2023-02-03T14:16:54.979Z,503.00
2023-02-03T14:17:53.218Z,512.00
2023-02-03T14:18:53.210Z,514.00
2023-02-03T14:19:53.216Z,505.00
2023-02-03T14:20:53.628Z,504.00
2023-02-03T14:21:53.201Z,501.00
2023-02-03T14:22:53.253Z,500.00
2023-02-03T14:23:53.207Z,503.00
2023-02-03T14:24:53.164Z,501.00
2023-02-03T14:25:53.155Z,509.00
2023-02-03T14:26:53.152Z,501.00
2023-02-03T14:27:53.200Z,502.00
2023-02-03T14:28:54.004Z,500.00
2023-02-03T14:29:53.149Z,505.00
2023-02-03T14:30:53.281Z,505.00
2023-02-03T14:31:53.151Z,502.00
2023-02-03T14:32:53.097Z,501.00
2023-02-03T14:33:53.097Z,505.00
2023-02-03T14:34:53.085Z,502.00
2023-02-03T14:35:53.121Z,503.00
2023-02-03T14:36:53.135Z,507.00
2023-02-03T14:37:53.064Z,502.00
2023-02-03T14:38:53.050Z,501.00
2023-02-03T14:39:53.061Z,505.00
2023-02-03T14:40:53.031Z,507.00
2023-02-03T14:41:53.038Z,505.00
2023-02-03T14:42:58.596Z,504.00
2023-02-03T14:43:53.140Z,505.00
2023-02-03T14:44:53.011Z,506.00
2023-02-03T14:45:53.055Z,505.00
2023-02-03T14:46:53.909Z,507.00
2023-02-03T14:47:52.977Z,508.00
2023-02-03T14:48:52.970Z,502.00
2023-02-03T14:49:52.959Z,503.00
2023-02-03T14:50:52.957Z,501.00
2023-02-03T14:51:52.951Z,500.00
2023-02-03T14:52:53.603Z,507.00
2023-02-03T14:53:52.929Z,508.00
2023-02-03T14:54:53.000Z,500.00
2023-02-03T14:55:52.913Z,503.00
2023-02-03T14:56:53.227Z,506.00
2023-02-03T14:57:52.888Z,501.00
2023-02-03T14:58:52.886Z,507.00
2023-02-03T14:59:52.889Z,502.00
2023-02-03T15:00:52.875Z,504.00
2023-02-03T15:01:53.270Z,501.00
2023-02-03T15:02:52.854Z,509.00
2023-02-03T15:03:52.841Z,511.00
2023-02-03T15:04:52.904Z,503.00
2023-02-03T15:05:52.823Z,503.00
2023-02-03T15:06:52.895Z,505.00
2023-02-03T15:07:53.137Z,505.00
2023-02-03T15:08:52.797Z,500.00
2023-02-03T15:09:52.794Z,507.00
2023-02-03T15:10:52.783Z,502.00
2023-02-03T15:11:53.135Z,512.00
2023-02-03T15:12:52.764Z,500.00
2023-02-03T15:13:52.773Z,502.00
2023-02-03T15:14:52.760Z,504.00
2023-02-03T15:15:52.779Z,503.00
2023-02-03T15:16:52.737Z,505.00
2023-02-03T15:17:53.137Z,506.00
2023-02-03T15:18:52.712Z,506.00
2023-02-03T15:19:52.723Z,502.00
2023-02-03T15:20:53.344Z,504.00
2023-02-03T15:21:52.693Z,507.00
2023-02-03T15:22:52.679Z,505.00
2023-02-03T15:23:52.671Z,505.00
2023-02-03T15:24:52.704Z,507.00
2023-02-03T15:25:52.664Z,503.00
2023-02-03T15:26:52.646Z,505.00
2023-02-03T15:27:53.152Z,503.00
2023-02-03T15:28:52.630Z,503.00
2023-02-03T15:29:52.634Z,502.00
2023-02-03T15:30:52.792Z,504.00
2023-02-03T15:31:52.673Z,504.00
2023-02-03T15:32:52.593Z,508.00
2023-02-03T15:33:53.135Z,501.00
2023-02-03T15:34:52.619Z,505.00
2023-02-03T15:35:52.573Z,506.00
2023-02-03T15:36:52.561Z,505.00